Hunter Army Air Field
KSVN : now visible

Airfield :











YOU CAN JOIN US ON...

 
LOGIN :

Register | Disclaimer

   EN    FR    IT 

 









Legend :    VFR   Marginal VFR   IFR   Intensive IFR   Very Intensive IFR
Visi :
Ceiling :
>= 8 km
>= 3000ft
5 to 8 km
1000 to 3000 ft
1500m to 5 km
500 to 1000 ft
800 to 1500m
200 to 500 ft
< 800m
< 200 ft
Symbols :   Thunderstorms  Fog  Heavy snow  Heavy precipitations  Wind > 20 kt






- Airport Elevation : 41 ft


KSVN - Hunter Army Air Field

CURRENT METAR :
  • 170556Z AUTO 00000KT 10SM BKN075 BKN140 23/21 A3003 RMK AO2 SLP172 60005 T02290211 10242 20228 57009 $

EXPIRED METARs :
  • 170456Z AUTO 00000KT 10SM OVC075 23/21 A3004 RMK AO2 SLP176 T02300212 402630230 $
  • 170356Z AUTO 00000KT 10SM OVC075 23/21 A3005 RMK AO2 SLP179 T02310213 $

TAF TAF KSVN
Valid from the 17 at 04:00 until the 18 at 10:00 UTC


170400Z 1704/1810 VRB06KT 9999 OVC080 QNH3004INS
BECMG 1707/1708 VRB06KT 9999 SCT020 QNH3002INS
BECMG 1717/1718 VRB06KT 9000 -SHRA FEW025 QNH3003INS
BECMG 1807/1808 VRB06KT 4800 BR SCT018 QNH3002INS TX28/1720Z TN23/1711Z
KZJX FIR / North America



MET'MAP, your aeronautical weather chart ! - Copyright ORBIFLY December 2007 - Disclaimer

ORBIFLY MET'MAP TEAM :

Programming & Development : Alexandra Zaïnal
Concept & original design : Baudouin d'Aumeries
Assistance for programming : Marc-Olivier Méhu
Technical & hardware support : Manuel Goepfert

Contact : metmap@orbifly.com




SOURCES & CREDITS :

   NOAA       Earth
Advisory